DHKAI EDLW-EDKS

Flight info

Callsign DHKAI
Flight time N/A
Altitude
Route EDLW/06 VFR
Aircraft DA62

Departure

Time 2026-04-29 19:34
Airport Dortmund Airport (EDLW)

Arrival

Time N/A
Airport EDKS
Time Latitude Longitude Altitude Speed Heading
2026-04-29 19:23 51.51193 7.60402 468 ft 0 kts 107°
2026-04-29 19:30 51.51194 7.60406 468 ft 4 kts 57°
2026-04-29 19:30 51.51168 7.60239 464 ft 22 kts 236°
2026-04-29 19:31 51.51210 7.60209 459 ft 21 kts 58°
2026-04-29 19:31 51.51307 7.60482 456 ft 29 kts 60°
2026-04-29 19:31 51.51404 7.60755 448 ft 29 kts 60°
2026-04-29 19:31 51.51506 7.61022 440 ft 27 kts 35°
2026-04-29 19:32 51.51552 7.60866 429 ft 23 kts 253°
2026-04-29 19:32 51.51527 7.60692 425 ft 0 kts 270°
2026-04-29 19:33 51.51559 7.60617 420 ft 14 kts 333°
2026-04-29 19:33 51.51625 7.60632 418 ft 19 kts 58°
2026-04-29 19:33 51.51802 7.61135 414 ft 79 kts 60°
2026-04-29 19:33 51.52133 7.62057 418 ft 108 kts 59°
2026-04-29 19:34 51.52332 7.63200 747 ft 102 kts 105°
2026-04-29 19:34 51.51844 7.63981 1006 ft 109 kts 147°
2026-04-29 19:34 51.51205 7.64731 1218 ft 118 kts 142°
2026-04-29 19:34 51.50622 7.65655 1504 ft 120 kts 131°
2026-04-29 19:35 51.50052 7.66774 1560 ft 138 kts 130°
2026-04-29 19:35 51.49449 7.67963 1567 ft 136 kts 129°
2026-04-29 19:35 51.48853 7.69114 1581 ft 133 kts 131°
2026-04-29 19:35 51.48263 7.70261 1540 ft 133 kts 128°
2026-04-29 19:36 51.47706 7.71476 1471 ft 136 kts 126°
2026-04-29 19:36 51.47135 7.72597 1480 ft 123 kts 158°
2026-04-29 19:36 51.46320 7.72472 1256 ft 125 kts 204°
2026-04-29 19:36 51.45550 7.71962 1062 ft 109 kts 204°
2026-04-29 19:37 51.44949 7.71565 962 ft 76 kts 206°
2026-04-29 19:37 51.44634 7.71306 831 ft 79 kts 211°
2026-04-29 19:37 51.44053 7.70630 601 ft 80 kts 222°
2026-04-29 19:37 51.43667 7.70076 512 ft 58 kts 222°
2026-04-29 19:38 51.43481 7.69802 521 ft 7 kts 189°